Time;durP1;ratioP1;P1;durP2;ratioP2;P2;SDS_P1;SDS_P2;PMS_P1;PMS_P2;Temp;Humidity;BMP_temperature;BMP_pressure;BME280_temperature;BME280_humidity;BME280_pressure;Samples;Min_cycle;Max_cycle;Signal;HPM_P1;HPM_P2
2021/12/27 00:00:12;;;;;;;0.20;0.13;;;10.20;99.90;;;;;;5012181;28;20018;-85
2021/12/27 00:02:38;;;;;;;0.88;0.43;;;10.20;99.90;;;;;;5012362;28;20022;-85
2021/12/27 00:05:05;;;;;;;0.20;0.20;;;10.20;99.90;;;;;;4992262;28;20037;-84
2021/12/27 00:07:30;;;;;;;1.95;1.80;;;10.20;99.90;;;;;;4991423;28;20484;-79
2021/12/27 00:09:56;;;;;;;0.00;0.00;;;10.30;99.90;;;;;;4992382;28;20038;-79
2021/12/27 00:12:22;;;;;;;0.00;0.00;;;10.30;99.90;;;;;;4992565;28;20065;-85
2021/12/27 00:14:47;;;;;;;0.00;0.00;;;10.30;99.90;;;;;;4996247;28;20018;-85
2021/12/27 00:17:13;;;;;;;0.22;0.22;;;10.40;99.90;;;;;;4995840;28;20057;-85
2021/12/27 00:19:38;;;;;;;0.08;0.08;;;10.50;99.90;;;;;;4995865;28;20035;-79
2021/12/27 00:22:04;;;;;;;0.10;0.10;;;10.50;99.90;;;;;;4995716;28;20033;-79
2021/12/27 00:24:30;;;;;;;0.00;0.00;;;10.60;99.90;;;;;;4995920;28;20497;-85
2021/12/27 00:26:55;;;;;;;0.05;0.03;;;10.60;99.90;;;;;;5009505;28;20424;-84
2021/12/27 00:29:21;;;;;;;0.10;0.10;;;10.60;99.90;;;;;;5015347;28;20034;-79
2021/12/27 00:31:47;;;;;;;0.28;0.28;;;10.60;99.90;;;;;;5015243;28;20026;-90
2021/12/27 00:34:13;;;;;;;0.10;0.10;;;10.70;99.90;;;;;;5016269;28;20033;-82
2021/12/27 00:36:39;;;;;;;0.00;0.00;;;10.70;99.90;;;;;;5015029;28;20104;-82
2021/12/27 00:39:05;;;;;;;1.98;1.10;;;10.60;99.90;;;;;;5018866;28;20026;-90
2021/12/27 00:41:30;;;;;;;0.95;0.95;;;10.70;99.90;;;;;;5018808;28;20037;-81
2021/12/27 00:43:56;;;;;;;0.35;0.35;;;10.70;99.90;;;;;;5017254;28;20390;-89
2021/12/27 00:46:22;;;;;;;0.03;0.03;;;10.70;99.90;;;;;;5015781;28;20040;-83
2021/12/27 00:48:48;;;;;;;0.28;0.20;;;10.70;99.90;;;;;;5013328;28;20034;-83
2021/12/27 00:51:13;;;;;;;0.00;0.00;;;10.60;99.90;;;;;;5016597;28;20033;-83
2021/12/27 00:53:39;;;;;;;0.00;0.00;;;10.70;99.90;;;;;;5014071;28;20045;-90
2021/12/27 00:56:05;;;;;;;0.00;0.00;;;10.70;99.90;;;;;;5017277;28;20050;-89
2021/12/27 00:58:31;;;;;;;0.08;0.08;;;10.60;99.90;;;;;;5014955;28;20025;-90
2021/12/27 01:00:57;;;;;;;0.00;0.00;;;10.60;99.90;;;;;;5015134;28;20068;-82
2021/12/27 01:03:22;;;;;;;0.00;0.00;;;10.70;99.90;;;;;;5014491;28;20030;-82
2021/12/27 01:05:48;;;;;;;0.00;0.00;;;10.70;99.90;;;;;;5015123;28;20022;-91
2021/12/27 01:08:14;;;;;;;0.70;0.70;;;10.70;99.90;;;;;;5013441;28;20026;-87
2021/12/27 01:18:32;;;;;;;2.78;0.93;;;10.70;99.90;;;;;;5014699;28;20036;-85
2021/12/27 01:20:58;;;;;;;0.00;0.00;;;10.70;99.90;;;;;;5014591;28;20096;-83
2021/12/27 01:23:24;;;;;;;0.55;0.55;;;10.70;99.90;;;;;;5014388;28;20477;-83
2021/12/27 01:25:49;;;;;;;0.13;0.13;;;10.70;99.90;;;;;;5012309;28;20501;-82
2021/12/27 01:28:16;;;;;;;0.13;0.13;;;10.70;99.90;;;;;;5014169;28;20089;-83
2021/12/27 01:30:47;;;;;;;0.00;0.00;;;10.60;99.90;;;;;;5014643;28;20029;-83
2021/12/27 01:33:14;;;;;;;0.00;0.00;;;10.60;99.90;;;;;;5014289;28;20033;-83
2021/12/27 01:35:40;;;;;;;0.05;0.05;;;10.60;99.90;;;;;;5014141;28;20552;-85
2021/12/27 01:38:06;;;;;;;0.52;0.52;;;10.60;99.90;;;;;;5012876;28;20040;-84
2021/12/27 01:40:32;;;;;;;1.75;0.52;;;10.60;99.90;;;;;;5014167;28;20424;-83
2021/12/27 01:43:05;;;;;;;0.00;0.00;;;10.60;99.90;;;;;;5014401;28;20109;-83
2021/12/27 01:45:33;;;;;;;0.10;0.10;;;10.50;99.90;;;;;;5014255;28;20501;-86
2021/12/27 01:47:58;;;;;;;0.25;0.25;;;10.50;99.90;;;;;;5013985;28;20034;-83
2021/12/27 01:50:24;;;;;;;0.10;0.10;;;10.50;99.90;;;;;;5013313;28;20029;-83
2021/12/27 01:52:50;;;;;;;0.05;0.05;;;10.50;99.90;;;;;;5012542;28;20041;-83
2021/12/27 01:55:16;;;;;;;0.00;0.00;;;10.50;99.90;;;;;;5013945;28;20425;-83
2021/12/27 01:57:42;;;;;;;1.35;1.27;;;10.50;99.90;;;;;;5012817;28;20038;-88
2021/12/27 02:00:09;;;;;;;0.70;0.70;;;10.50;99.90;;;;;;5013868;28;20057;-82
2021/12/27 02:02:34;;;;;;;0.00;0.00;;;10.50;99.90;;;;;;5013679;28;20382;-79
2021/12/27 02:05:00;;;;;;;0.52;0.30;;;10.50;99.90;;;;;;4994553;28;20037;-81
2021/12/27 02:07:26;;;;;;;0.10;0.10;;;10.50;99.90;;;;;;4994453;28;20089;-82
2021/12/27 02:10:02;;;;;;;0.80;0.20;;;10.50;99.90;;;;;;5008827;28;20117;-80
2021/12/27 02:12:29;;;;;;;0.00;0.00;;;10.40;99.90;;;;;;4994000;28;20023;-81
2021/12/27 02:14:55;;;;;;;0.00;0.00;;;10.40;99.90;;;;;;4992830;28;20014;-78
2021/12/27 02:17:21;;;;;;;0.00;0.00;;;10.40;99.90;;;;;;4993532;28;20557;-79
2021/12/27 02:19:56;;;;;;;0.25;0.25;;;10.40;99.90;;;;;;4993599;28;20027;-78
2021/12/27 02:22:22;;;;;;;0.00;0.00;;;10.40;99.90;;;;;;4993651;28;20045;-80
2021/12/27 02:24:48;;;;;;;0.10;0.10;;;10.40;99.90;;;;;;4993834;28;20394;-81
2021/12/27 02:27:15;;;;;;;0.00;0.00;;;10.40;99.90;;;;;;5009622;28;20054;-81
2021/12/27 02:29:41;;;;;;;0.00;0.00;;;10.40;99.90;;;;;;5013360;28;20026;-81
2021/12/27 02:32:07;;;;;;;0.22;0.22;;;10.40;99.90;;;;;;5011833;28;20030;-81
2021/12/27 02:34:33;;;;;;;0.00;0.00;;;10.40;99.90;;;;;;5013357;28;20037;-81
2021/12/27 02:37:00;;;;;;;0.00;0.00;;;10.50;99.90;;;;;;5012813;28;20374;-80
2021/12/27 02:39:26;;;;;;;0.00;0.00;;;10.60;99.90;;;;;;5011434;28;20402;-83
2021/12/27 02:41:55;;;;;;;7.22;1.42;;;10.60;99.90;;;;;;5013268;28;20032;-86
2021/12/27 02:44:21;;;;;;;0.60;0.60;;;10.50;99.90;;;;;;5011836;28;20038;-81
2021/12/27 02:46:47;;;;;;;0.22;0.22;;;10.50;99.90;;;;;;5012951;28;20053;-81
2021/12/27 02:49:12;;;;;;;0.45;0.10;;;10.40;99.90;;;;;;5012476;28;20026;-82
2021/12/27 02:51:38;;;;;;;2.63;0.65;;;10.40;99.90;;;;;;5012878;28;20026;-79
2021/12/27 02:54:04;;;;;;;0.10;0.10;;;10.40;99.90;;;;;;5027829;28;20026;-89
2021/12/27 02:56:30;;;;;;;0.10;0.10;;;10.30;99.90;;;;;;5031965;28;20056;-85
2021/12/27 02:58:57;;;;;;;0.20;0.20;;;10.30;99.90;;;;;;5016014;28;20018;-81
2021/12/27 03:01:24;;;;;;;0.10;0.10;;;10.30;99.90;;;;;;5022700;28;20026;-85
2021/12/27 03:03:50;;;;;;;0.05;0.05;;;10.30;99.90;;;;;;5027906;28;20034;-86
2021/12/27 03:06:16;;;;;;;0.00;0.00;;;10.30;99.90;;;;;;5012328;28;20026;-84
2021/12/27 03:08:44;;;;;;;0.68;0.45;;;10.20;99.90;;;;;;5011562;28;20505;-86
2021/12/27 03:11:11;;;;;;;0.35;0.13;;;10.20;99.90;;;;;;5000819;28;20064;-83
2021/12/27 03:13:39;;;;;;;0.05;0.05;;;10.20;99.90;;;;;;4993400;28;20402;-90
2021/12/27 03:16:08;;;;;;;0.00;0.00;;;10.20;99.90;;;;;;4993219;28;20033;-90
2021/12/27 03:18:36;;;;;;;0.00;0.00;;;10.30;99.90;;;;;;4992929;28;20022;-92
2021/12/27 03:21:03;;;;;;;0.00;0.00;;;10.30;99.90;;;;;;5008807;28;20046;-87
2021/12/27 03:23:29;;;;;;;1.25;1.05;;;10.30;99.90;;;;;;5014687;28;20030;-84
2021/12/27 03:25:54;;;;;;;1.48;0.93;;;10.30;99.90;;;;;;5024633;28;20026;-86
2021/12/27 03:28:21;;;;;;;1.25;0.15;;;10.30;99.90;;;;;;5012450;28;20077;-92
2021/12/27 03:30:48;;;;;;;1.98;0.63;;;10.30;99.90;;;;;;5011819;28;20547;-90
2021/12/27 03:33:15;;;;;;;0.00;0.00;;;10.30;99.90;;;;;;5011384;28;20023;-91
2021/12/27 03:35:51;;;;;;;0.00;0.00;;;10.30;99.90;;;;;;5012332;28;20651;-88
2021/12/27 03:38:16;;;;;;;0.00;0.00;;;10.30;99.90;;;;;;5011267;28;20026;-85
2021/12/27 03:40:44;;;;;;;0.00;0.00;;;10.30;99.90;;;;;;5011349;28;20030;-86
2021/12/27 03:43:10;;;;;;;0.00;0.00;;;10.30;99.90;;;;;;5012764;28;20022;-91
2021/12/27 03:45:38;;;;;;;0.00;0.00;;;10.30;99.90;;;;;;5011407;28;20033;-86
2021/12/27 03:48:07;;;;;;;0.00;0.00;;;10.30;99.90;;;;;;5013498;28;20025;-83
2021/12/27 03:50:33;;;;;;;1.35;0.25;;;10.40;99.90;;;;;;5014726;28;20037;-83
2021/12/27 03:52:58;;;;;;;0.00;0.00;;;10.30;99.90;;;;;;5016005;28;20064;-83
2021/12/27 03:55:25;;;;;;;0.08;0.08;;;10.40;99.90;;;;;;5015971;28;20061;-82
2021/12/27 03:57:53;;;;;;;0.00;0.00;;;10.30;99.90;;;;;;5014755;28;20445;-83
2021/12/27 04:02:57;;;;;;;0.00;0.00;;;10.50;99.90;;;;;;5015190;28;20473;-82
2021/12/27 04:05:23;;;;;;;17.67;0.45;;;10.50;99.90;;;;;;4995929;28;20199;-85
2021/12/27 04:07:55;;;;;;;0.20;0.20;;;10.60;99.90;;;;;;4996989;28;20440;-86
2021/12/27 04:10:21;;;;;;;0.00;0.00;;;10.70;99.90;;;;;;5028118;28;20041;-84
2021/12/27 04:12:47;;;;;;;0.47;0.30;;;10.80;99.90;;;;;;4995024;28;20031;-83
2021/12/27 04:15:13;;;;;;;0.77;0.63;;;10.90;99.90;;;;;;5027653;28;20037;-83
2021/12/27 04:17:39;;;;;;;0.00;0.00;;;11.00;99.90;;;;;;4996044;28;20069;-83
2021/12/27 04:20:05;;;;;;;0.10;0.10;;;11.10;99.90;;;;;;4995813;28;20034;-82
2021/12/27 04:22:33;;;;;;;0.00;0.00;;;11.20;99.90;;;;;;5027549;28;20038;-83
2021/12/27 04:25:00;;;;;;;0.00;0.00;;;11.40;99.90;;;;;;4996064;28;20516;-74
2021/12/27 04:27:26;;;;;;;0.98;0.93;;;11.80;99.90;;;;;;5013463;28;20057;-82
2021/12/27 04:29:52;;;;;;;0.00;0.00;;;12.20;99.90;;;;;;5015718;28;20026;-82
2021/12/27 04:32:18;;;;;;;1.85;0.65;;;12.30;99.90;;;;;;5014206;28;20037;-83
2021/12/27 04:34:43;;;;;;;1.00;0.85;;;12.40;99.90;;;;;;5015129;28;20030;-84
2021/12/27 04:37:09;;;;;;;0.10;0.10;;;12.40;99.90;;;;;;5015432;28;20050;-88
2021/12/27 04:39:36;;;;;;;0.30;0.30;;;12.50;99.90;;;;;;5014721;28;20120;-86
2021/12/27 04:42:02;;;;;;;0.00;0.00;;;12.50;99.90;;;;;;5014328;28;20030;-82
2021/12/27 04:44:28;;;;;;;2.28;1.33;;;12.60;99.90;;;;;;5015917;28;20026;-90
2021/12/27 04:46:54;;;;;;;1.02;0.52;;;12.60;99.90;;;;;;5015534;28;20025;-83
2021/12/27 04:49:19;;;;;;;1.40;1.33;;;12.60;99.90;;;;;;5014774;28;20030;-80
2021/12/27 04:51:45;;;;;;;6.72;0.73;;;12.70;99.90;;;;;;5014972;28;20562;-91
2021/12/27 04:54:11;;;;;;;0.90;0.82;;;12.70;99.90;;;;;;5013733;28;20026;-76
2021/12/27 04:56:36;;;;;;;3.50;1.20;;;12.80;99.90;;;;;;5014457;28;20025;-81
2021/12/27 04:59:02;;;;;;;0.47;0.47;;;12.90;99.90;;;;;;5014822;28;20030;-83
2021/12/27 05:01:28;;;;;;;0.03;0.03;;;12.90;99.90;;;;;;5015045;28;20036;-80
2021/12/27 05:03:53;;;;;;;0.28;0.28;;;12.90;99.90;;;;;;5004945;28;20037;-87
2021/12/27 05:06:20;;;;;;;0.10;0.10;;;12.90;99.90;;;;;;4995059;28;20030;-79
2021/12/27 05:08:48;;;;;;;5.35;0.98;;;12.90;99.90;;;;;;4995103;28;20043;-88
2021/12/27 05:11:14;;;;;;;0.00;0.00;;;12.80;99.90;;;;;;4995085;28;20489;-82
2021/12/27 05:13:40;;;;;;;0.85;0.85;;;12.80;99.90;;;;;;4995249;28;20080;-86
2021/12/27 05:16:06;;;;;;;0.45;0.45;;;12.80;99.90;;;;;;4994725;28;20044;-86
2021/12/27 05:18:32;;;;;;;0.52;0.52;;;12.90;99.90;;;;;;4994855;28;20026;-85
2021/12/27 05:20:58;;;;;;;4.05;1.85;;;12.90;99.90;;;;;;4993347;28;20109;-81
2021/12/27 05:23:24;;;;;;;7.95;1.92;;;12.90;99.90;;;;;;4994746;28;20102;-85
2021/12/27 05:25:49;;;;;;;6.82;1.45;;;12.90;99.90;;;;;;4999530;28;20109;-86
2021/12/27 05:28:15;;;;;;;0.00;0.00;;;12.90;99.90;;;;;;5014336;28;20045;-86
2021/12/27 05:30:43;;;;;;;2.15;1.42;;;12.80;99.90;;;;;;5014647;28;20028;-85
2021/12/27 05:33:09;;;;;;;4.75;1.65;;;12.80;99.90;;;;;;5014233;28;20034;-84
2021/12/27 05:35:35;;;;;;;0.80;0.80;;;12.80;99.90;;;;;;5012711;28;20026;-84
2021/12/27 05:38:00;;;;;;;0.35;0.35;;;12.80;99.90;;;;;;5014097;28;20034;-85
2021/12/27 05:40:26;;;;;;;0.10;0.10;;;12.80;99.90;;;;;;5012244;28;20037;-80
2021/12/27 05:42:53;;;;;;;1.45;0.63;;;12.80;99.90;;;;;;5013368;28;20053;-84
2021/12/27 05:45:20;;;;;;;1.55;1.17;;;12.90;99.90;;;;;;5013816;28;20021;-80
2021/12/27 05:47:46;;;;;;;10.45;1.17;;;12.80;99.90;;;;;;5013762;28;20036;-81
2021/12/27 05:50:13;;;;;;;1.75;1.27;;;12.80;99.90;;;;;;5013387;28;20473;-81
2021/12/27 05:52:40;;;;;;;1.90;1.80;;;12.80;99.90;;;;;;5013752;28;20033;-84
2021/12/27 05:55:07;;;;;;;1.55;1.40;;;12.80;99.90;;;;;;5012554;28;20022;-85
2021/12/27 05:57:33;;;;;;;0.00;0.00;;;12.90;99.90;;;;;;5013348;28;20524;-84
2021/12/27 05:59:59;;;;;;;3.33;2.17;;;12.90;99.90;;;;;;5013724;28;20101;-81
2021/12/27 06:02:24;;;;;;;6.97;2.25;;;12.90;99.90;;;;;;5013691;28;20507;-85
2021/12/27 06:04:50;;;;;;;7.63;2.22;;;12.90;99.90;;;;;;5013204;28;20493;-85
2021/12/27 06:07:16;;;;;;;3.25;1.35;;;12.90;99.90;;;;;;5013594;28;20033;-83
2021/12/27 06:09:42;;;;;;;0.20;0.20;;;12.90;99.90;;;;;;5013614;28;20057;-83
2021/12/27 06:12:08;;;;;;;0.82;0.82;;;12.90;99.90;;;;;;5013203;28;20084;-80
2021/12/27 06:14:33;;;;;;;2.10;1.70;;;12.90;99.90;;;;;;5013410;28;20045;-79
2021/12/27 06:16:59;;;;;;;1.30;1.20;;;12.90;99.90;;;;;;5013355;28;20559;-82
2021/12/27 06:19:25;;;;;;;1.08;1.08;;;12.80;99.90;;;;;;5013184;28;20026;-82
2021/12/27 06:21:55;;;;;;;0.00;0.00;;;12.80;99.90;;;;;;5013195;28;20084;-82
2021/12/27 06:24:20;;;;;;;0.10;0.10;;;12.70;99.90;;;;;;5013228;28;20025;-82
2021/12/27 06:26:47;;;;;;;1.40;1.30;;;12.70;99.90;;;;;;5013149;28;20584;-82
2021/12/27 06:29:13;;;;;;;0.03;0.03;;;12.60;99.90;;;;;;5011851;28;20038;-82
2021/12/27 06:31:39;;;;;;;2.00;1.88;;;12.50;99.90;;;;;;5012086;28;20091;-82
2021/12/27 06:34:04;;;;;;;4.18;2.10;;;12.40;99.90;;;;;;5012969;28;20026;-82
2021/12/27 06:36:30;;;;;;;4.85;2.50;;;12.30;99.90;;;;;;5000638;28;20029;-83
2021/12/27 06:38:56;;;;;;;4.10;2.10;;;12.20;99.90;;;;;;4993365;28;20367;-83
2021/12/27 06:41:24;;;;;;;3.20;2.15;;;12.10;99.90;;;;;;4992047;28;20065;-82
2021/12/27 06:43:51;;;;;;;1.98;0.82;;;12.10;99.90;;;;;;4993665;28;20026;-83
2021/12/27 06:46:17;;;;;;;2.53;1.65;;;12.10;99.90;;;;;;4993296;28;20037;-83
2021/12/27 06:48:43;;;;;;;1.25;0.90;;;12.20;99.90;;;;;;5010908;28;20092;-82
2021/12/27 06:51:09;;;;;;;1.55;1.35;;;12.30;99.90;;;;;;5012582;28;20042;-82
2021/12/27 06:53:34;;;;;;;1.08;0.88;;;12.30;99.90;;;;;;5012635;28;20037;-83
2021/12/27 06:56:02;;;;;;;1.08;1.08;;;12.30;99.90;;;;;;5012629;28;20033;-83
2021/12/27 06:58:28;;;;;;;1.08;0.90;;;12.40;99.90;;;;;;5012779;28;20025;-82
2021/12/27 07:00:54;;;;;;;4.57;2.80;;;12.40;99.90;;;;;;5012873;28;20026;-84
2021/12/27 07:03:20;;;;;;;1.45;1.30;;;12.30;99.90;;;;;;5012564;28;20022;-83
2021/12/27 07:05:45;;;;;;;0.45;0.45;;;12.30;99.90;;;;;;5012449;28;20396;-83
2021/12/27 07:08:11;;;;;;;3.70;2.35;;;12.40;99.90;;;;;;5012803;28;20030;-82
2021/12/27 07:10:37;;;;;;;0.73;0.73;;;12.40;99.90;;;;;;5012656;28;20083;-83
2021/12/27 07:13:04;;;;;;;1.27;1.05;;;12.40;99.90;;;;;;5011291;28;20026;-83
2021/12/27 07:15:30;;;;;;;4.15;3.15;;;12.40;99.90;;;;;;5011273;28;20037;-83
2021/12/27 07:17:56;;;;;;;0.70;0.70;;;12.40;99.90;;;;;;5011141;28;20053;-81
2021/12/27 07:20:23;;;;;;;1.20;0.90;;;12.40;99.90;;;;;;5012331;28;20041;-83
2021/12/27 07:22:49;;;;;;;4.05;2.42;;;12.40;99.90;;;;;;5013268;28;20030;-84
2021/12/27 07:25:15;;;;;;;1.33;1.23;;;12.40;99.90;;;;;;5009930;28;20030;-84
2021/12/27 07:27:40;;;;;;;0.88;0.65;;;12.50;99.90;;;;;;5012404;28;20060;-84
2021/12/27 07:30:09;;;;;;;0.00;0.00;;;12.50;99.90;;;;;;5013738;28;20033;-83
2021/12/27 07:32:35;;;;;;;3.28;1.77;;;12.50;99.90;;;;;;5016320;28;20022;-84
2021/12/27 07:35:02;;;;;;;2.15;1.83;;;12.50;99.90;;;;;;5016456;28;20497;-84
2021/12/27 07:37:28;;;;;;;6.30;2.17;;;12.50;99.90;;;;;;5016461;28;20018;-84
2021/12/27 07:39:54;;;;;;;1.10;1.00;;;12.50;99.90;;;;;;5015254;28;20511;-84
2021/12/27 07:42:19;;;;;;;0.47;0.47;;;12.50;99.90;;;;;;5015353;28;20030;-82
2021/12/27 07:44:45;;;;;;;0.52;0.52;;;12.50;99.90;;;;;;5016410;28;20160;-85
2021/12/27 07:47:11;;;;;;;0.95;0.95;;;12.50;99.90;;;;;;5016615;28;20029;-85
2021/12/27 07:49:37;;;;;;;2.63;1.55;;;12.40;99.90;;;;;;5014649;28;20497;-82
2021/12/27 07:52:04;;;;;;;4.07;0.45;;;12.40;99.90;;;;;;5017351;28;20493;-79
2021/12/27 07:54:29;;;;;;;2.72;2.15;;;12.40;99.90;;;;;;5018243;28;20064;-82
2021/12/27 07:56:55;;;;;;;3.00;2.08;;;12.40;99.90;;;;;;5014026;28;20053;-85
2021/12/27 07:59:21;;;;;;;1.20;1.20;;;12.40;99.90;;;;;;5015979;28;20493;-85
2021/12/27 08:01:47;;;;;;;28.38;1.63;;;12.30;99.90;;;;;;5019047;28;20034;-82
2021/12/27 08:04:12;;;;;;;0.20;0.20;;;12.30;99.90;;;;;;5004824;28;20026;-82
2021/12/27 08:06:38;;;;;;;19.77;4.40;;;12.20;99.90;;;;;;4998085;28;20062;-85
2021/12/27 08:09:05;;;;;;;1.25;1.17;;;12.10;99.90;;;;;;4996001;28;20073;-85
2021/12/27 08:11:31;;;;;;;6.75;1.38;;;12.00;99.90;;;;;;5011266;28;20433;-85
2021/12/27 08:13:57;;;;;;;7.20;4.15;;;12.00;99.90;;;;;;4999761;28;20029;-83
2021/12/27 08:16:24;;;;;;;5.68;2.95;;;12.00;99.90;;;;;;4999750;28;20030;-85
2021/12/27 08:18:54;;;;;;;1.70;1.60;;;12.00;99.90;;;;;;4998292;28;20018;-85
2021/12/27 08:21:21;;;;;;;7.28;3.35;;;12.00;99.90;;;;;;5000226;28;20081;-84
2021/12/27 08:23:47;;;;;;;2.25;1.23;;;12.00;99.90;;;;;;4996088;28;20034;-85
2021/12/27 08:26:13;;;;;;;4.35;1.75;;;12.00;99.90;;;;;;5005294;28;20021;-84
2021/12/27 08:28:39;;;;;;;3.45;1.65;;;12.10;99.90;;;;;;5019361;28;20390;-85
2021/12/27 08:31:05;;;;;;;12.00;3.00;;;12.00;99.90;;;;;;5019570;28;20021;-84
2021/12/27 08:33:30;;;;;;;9.80;1.98;;;12.00;99.90;;;;;;5020630;28;20053;-85
2021/12/27 08:35:56;;;;;;;3.92;2.55;;;11.90;99.90;;;;;;5013695;28;20429;-84
2021/12/27 08:38:22;;;;;;;2.33;2.13;;;11.90;99.90;;;;;;5013996;28;20033;-83
2021/12/27 08:40:47;;;;;;;0.10;0.10;;;11.80;99.90;;;;;;5018816;28;20616;-83
2021/12/27 08:43:13;;;;;;;7.38;3.30;;;11.80;99.90;;;;;;5016177;28;20061;-82
2021/12/27 08:45:39;;;;;;;3.60;1.45;;;11.80;99.90;;;;;;5018222;28;20501;-84
2021/12/27 08:48:05;;;;;;;7.57;3.20;;;11.80;99.90;;;;;;5015692;28;20084;-85
2021/12/27 08:50:31;;;;;;;2.58;1.90;;;11.80;99.90;;;;;;5014402;28;20030;-85
2021/12/27 08:52:56;;;;;;;14.05;1.45;;;11.80;99.90;;;;;;5015324;28;20040;-85
2021/12/27 08:55:22;;;;;;;11.07;1.73;;;11.80;99.90;;;;;;5017878;28;20052;-84
2021/12/27 08:57:48;;;;;;;43.00;2.70;;;11.80;99.90;;;;;;5019018;28;20096;-84
2021/12/27 09:00:16;;;;;;;1.38;0.47;;;11.80;99.90;;;;;;5017041;28;20047;-84
2021/12/27 09:02:43;;;;;;;3.47;1.23;;;11.80;99.90;;;;;;5016293;28;20026;-85
2021/12/27 09:05:09;;;;;;;14.77;4.55;;;11.90;99.90;;;;;;4995937;28;20027;-85
2021/12/27 09:07:35;;;;;;;1.35;1.25;;;12.00;99.90;;;;;;4997922;28;20042;-84
2021/12/27 09:10:01;;;;;;;2.08;1.95;;;12.10;99.90;;;;;;4998316;28;20029;-83
2021/12/27 09:12:26;;;;;;;7.28;3.10;;;12.20;99.90;;;;;;4998497;28;20030;-83
2021/12/27 09:14:52;;;;;;;4.45;1.80;;;12.40;99.90;;;;;;4996890;28;20031;-85
2021/12/27 09:17:18;;;;;;;11.38;3.55;;;12.40;99.90;;;;;;4997153;28;20031;-85
2021/12/27 09:19:44;;;;;;;0.63;0.63;;;12.50;99.90;;;;;;4995676;28;20548;-84
2021/12/27 09:22:11;;;;;;;1.77;1.65;;;12.60;99.90;;;;;;4997622;28;20069;-84
2021/12/27 09:24:37;;;;;;;6.28;2.60;;;12.60;99.90;;;;;;4999255;28;20018;-85
2021/12/27 09:27:02;;;;;;;5.07;2.28;;;12.70;99.90;;;;;;5014526;28;20169;-83
2021/12/27 09:29:28;;;;;;;4.70;3.00;;;12.70;99.90;;;;;;5014366;28;20501;-85
2021/12/27 09:31:54;;;;;;;4.28;2.08;;;12.70;99.90;;;;;;5017211;28;20041;-84
2021/12/27 09:34:20;;;;;;;2.83;1.52;;;12.90;99.90;;;;;;5017345;28;20024;-84
2021/12/27 09:36:46;;;;;;;4.68;2.85;;;13.00;99.90;;;;;;5018947;28;20025;-83
2021/12/27 09:39:12;;;;;;;4.30;2.53;;;13.00;99.90;;;;;;5019220;28;20028;-83
2021/12/27 09:41:38;;;;;;;0.75;0.75;;;13.10;99.90;;;;;;5014731;28;20528;-84
2021/12/27 09:44:05;;;;;;;1.48;1.08;;;13.10;99.90;;;;;;5014911;28;20029;-85
2021/12/27 09:46:31;;;;;;;5.03;1.00;;;13.20;99.90;;;;;;5020727;28;20053;-85
2021/12/27 09:49:00;;;;;;;19.05;7.40;;;13.10;99.90;;;;;;5021533;28;20026;-86
2021/12/27 09:51:28;;;;;;;0.70;0.70;;;13.10;99.90;;;;;;5021006;28;20030;-83
2021/12/27 09:53:54;;;;;;;1.27;0.63;;;13.20;99.90;;;;;;5016559;28;20014;-84
2021/12/27 09:56:20;;;;;;;1.15;1.05;;;13.30;99.90;;;;;;5013252;28;20026;-84
2021/12/27 09:58:45;;;;;;;30.20;4.40;;;13.30;99.90;;;;;;5019148;28;20022;-82
2021/12/27 10:01:11;;;;;;;2.22;1.42;;;13.20;99.90;;;;;;5020338;28;20100;-84
2021/12/27 10:03:49;;;;;;;3.60;1.50;;;13.10;99.90;;;;;;5020923;28;20022;-84
2021/12/27 10:06:15;;;;;;;0.45;0.40;;;13.10;99.90;;;;;;5015003;28;20029;-84
2021/12/27 10:08:46;;;;;;;5.70;3.05;;;13.00;99.90;;;;;;5013663;28;20033;-84
2021/12/27 10:11:24;;;;;;;8.85;3.20;;;13.00;99.90;;;;;;5015676;28;20037;-86
2021/12/27 10:14:09;;;;;;;0.10;0.10;;;13.10;99.90;;;;;;5018237;28;20033;-85
2021/12/27 10:16:37;;;;;;;0.80;0.80;;;13.20;99.90;;;;;;5018953;28;20032;-86
2021/12/27 10:19:07;;;;;;;1.17;0.57;;;13.30;99.90;;;;;;5019153;28;20485;-84
2021/12/27 10:21:34;;;;;;;0.77;0.77;;;13.30;99.90;;;;;;5013090;28;20029;-83
2021/12/27 10:24:28;;;;;;;1.75;1.65;;;13.30;99.90;;;;;;5020676;28;20030;-84
2021/12/27 10:26:59;;;;;;;0.45;0.45;;;13.20;99.90;;;;;;5019694;28;20038;-81
2021/12/27 10:29:28;;;;;;;27.33;2.40;;;13.10;99.90;;;;;;5020345;28;20551;-86
2021/12/27 10:32:04;;;;;;;3.30;2.28;;;13.00;99.90;;;;;;5020697;28;20037;-84
2021/12/27 10:34:43;;;;;;;6.95;3.03;;;13.00;99.90;;;;;;5013731;28;20045;-86
2021/12/27 10:37:33;;;;;;;24.83;2.72;;;12.90;99.90;;;;;;5017151;28;20056;-88
2021/12/27 10:40:01;;;;;;;2.90;1.95;;;12.80;99.90;;;;;;5019540;28;20057;-83
2021/12/27 10:42:29;;;;;;;0.15;0.08;;;12.70;99.90;;;;;;5017144;28;20022;-86
2021/12/27 10:45:01;;;;;;;4.85;2.75;;;12.70;99.90;;;;;;5018008;28;20113;-84
2021/12/27 10:47:32;;;;;;;2.63;1.33;;;12.70;99.90;;;;;;5011754;28;20049;-83
2021/12/27 10:50:05;;;;;;;0.80;0.80;;;12.70;99.90;;;;;;5016692;28;20096;-89
2021/12/27 10:52:51;;;;;;;0.68;0.63;;;12.70;99.90;;;;;;5017560;28;20057;-83
2021/12/27 10:55:20;;;;;;;0.52;0.52;;;12.80;99.90;;;;;;5017369;28;20501;-83
2021/12/27 10:57:47;;;;;;;0.90;0.63;;;12.70;99.90;;;;;;5024066;28;20022;-85
2021/12/27 11:00:30;;;;;;;7.95;3.22;;;12.70;99.90;;;;;;5015223;28;20057;-85
2021/12/27 11:03:02;;;;;;;6.15;3.67;;;12.70;99.90;;;;;;5021547;28;20018;-79
2021/12/27 11:05:30;;;;;;;5.35;0.93;;;12.60;99.90;;;;;;5018529;28;20389;-86
2021/12/27 11:08:00;;;;;;;0.55;0.55;;;12.70;99.90;;;;;;5021977;28;20030;-88
2021/12/27 11:10:27;;;;;;;24.65;1.70;;;12.60;99.90;;;;;;5019135;28;20029;-81
2021/12/27 11:12:53;;;;;;;0.47;0.45;;;12.60;99.90;;;;;;5020015;28;20025;-84
2021/12/27 11:15:19;;;;;;;6.75;2.65;;;12.70;99.90;;;;;;5017419;28;20060;-87
2021/12/27 11:17:46;;;;;;;13.10;0.88;;;12.90;99.90;;;;;;5017981;28;20420;-85
2021/12/27 11:20:13;;;;;;;0.28;0.28;;;13.10;99.90;;;;;;5013881;28;20033;-86
2021/12/27 11:22:41;;;;;;;0.45;0.45;;;13.20;99.90;;;;;;5014595;28;20034;-85
2021/12/27 11:25:19;;;;;;;1.10;0.98;;;13.20;99.90;;;;;;5012333;28;20451;-83
2021/12/27 11:27:46;;;;;;;0.10;0.10;;;13.20;99.90;;;;;;5015061;28;20038;-83
2021/12/27 11:30:13;;;;;;;6.13;1.77;;;13.10;99.90;;;;;;5013570;28;20116;-83
2021/12/27 11:33:02;;;;;;;5.20;2.00;;;13.10;99.90;;;;;;5015377;28;20164;-83
2021/12/27 11:35:38;;;;;;;0.40;0.40;;;13.10;99.90;;;;;;5011902;28;20022;-87
2021/12/27 11:38:05;;;;;;;0.57;0.52;;;13.10;99.90;;;;;;5014235;28;20025;-84
2021/12/27 11:40:49;;;;;;;0.85;0.85;;;13.00;99.90;;;;;;5009510;28;20026;-87
2021/12/27 11:43:14;;;;;;;5.60;0.32;;;13.00;99.90;;;;;;5014361;28;20467;-86
2021/12/27 11:45:45;;;;;;;3.40;1.50;;;13.00;99.90;;;;;;5012481;28;20017;-86
2021/12/27 11:48:27;;;;;;;0.52;0.52;;;13.00;99.90;;;;;;5012487;28;20109;-86
2021/12/27 11:50:58;;;;;;;4.38;2.28;;;12.90;99.90;;;;;;5008203;28;20508;-83
2021/12/27 11:53:31;;;;;;;9.13;3.47;;;12.90;99.90;;;;;;5009329;28;20065;-84
2021/12/27 11:55:57;;;;;;;0.90;0.90;;;12.80;99.90;;;;;;5011556;28;20481;-84
2021/12/27 11:58:40;;;;;;;0.45;0.45;;;12.70;99.90;;;;;;5013150;28;20501;-87
2021/12/27 12:01:26;;;;;;;0.28;0.28;;;12.70;99.90;;;;;;5011544;28;20026;-86
2021/12/27 12:03:55;;;;;;;0.40;0.40;;;12.70;99.90;;;;;;5006501;28;20034;-85
2021/12/27 12:06:42;;;;;;;0.38;0.38;;;12.70;99.90;;;;;;5007515;28;20496;-85
2021/12/27 12:09:17;;;;;;;4.25;1.88;;;12.80;99.90;;;;;;5015592;28;20033;-88
2021/12/27 12:11:45;;;;;;;6.85;2.00;;;12.80;99.90;;;;;;5019587;28;20033;-81
2021/12/27 12:14:29;;;;;;;0.28;0.28;;;12.80;99.90;;;;;;5016017;28;20161;-86
2021/12/27 12:16:56;;;;;;;1.02;0.98;;;12.90;99.90;;;;;;5016246;28;20053;-86
2021/12/27 12:19:46;;;;;;;4.55;0.95;;;12.80;99.90;;;;;;5014619;28;20042;-85
2021/12/27 12:22:38;;;;;;;15.15;3.88;;;12.80;99.90;;;;;;5015677;28;20104;-87
2021/12/27 12:25:25;;;;;;;2.17;1.10;;;12.70;99.90;;;;;;5016138;28;20072;-87
2021/12/27 12:27:51;;;;;;;0.03;0.03;;;12.60;99.90;;;;;;5010726;28;20408;-86
2021/12/27 12:30:17;;;;;;;0.90;0.28;;;12.50;99.90;;;;;;5015738;28;20030;-87
2021/12/27 12:33:00;;;;;;;2.65;2.40;;;12.40;99.90;;;;;;5015529;28;20448;-87
2021/12/27 12:35:31;;;;;;;;;;;12.30;99.90;;;;;;5016031;28;20097;-86
2021/12/27 12:38:29;;;;;;;8.93;1.88;;;12.30;99.90;;;;;;5015994;28;19905;-88
2021/12/27 12:41:15;;;;;;;0.20;0.20;;;12.20;99.90;;;;;;5016190;28;20022;-86
2021/12/27 12:43:57;;;;;;;4.78;1.10;;;12.30;99.90;;;;;;5015753;28;20099;-84
2021/12/27 12:46:45;;;;;;;0.00;0.00;;;12.40;99.90;;;;;;5017619;28;20480;-87
2021/12/27 12:49:16;;;;;;;0.38;0.35;;;12.70;99.90;;;;;;5014239;28;20029;-88
2021/12/27 12:51:48;;;;;;;11.95;3.13;;;13.00;99.90;;;;;;5019606;28;20040;-88
2021/12/27 12:54:16;;;;;;;0.25;0.25;;;13.20;99.90;;;;;;5015177;28;20022;-87
2021/12/27 12:56:42;;;;;;;0.05;0.05;;;13.30;99.90;;;;;;5015770;28;20029;-83
2021/12/27 12:59:20;;;;;;;8.48;2.78;;;13.30;99.90;;;;;;5015372;28;20018;-87